Startpagina
METAR-TAF:

METAR-TAF

Vliegvelden :

Luchthaven Ambouli Internationaal

Djibouti, Djibouti

breedte: 11-33N, lengte: 043-10E, hoogte: 49 m

Actueel weer

Dit bericht is 1 uur en het 2 minuten geleden gemaakt, om 09:00 UTC
Wind 15 kt uit het oosten
Temperatuur 35°C
Vochtigheid 60%
Druk 1010 hPa
Onbewolkt

METAR: HDAM 230900Z 09015KT SKC 35/26 Q1010

Tijdstip: 13:02 (10:02 UTC)

Verwachting

Dit bericht is 5 uur en het 2 minuten geleden gemaakt, om 05:00 UTC
Verwachting geldig van 23 om 06 UTC tot 24 om 06 UTC
Wind 10 kt uit het oosten
Zicht 10 km of meer
Weinig wolken op 2300 ft
Wijzigt naar
van 23 om 12 UTC tot 23 om 15 UTC
Wind 3 kt uit variabele richting
Zicht 10 km of meer
geen wolken onder 1500 m en geen cumulonimbus
Wijzigt naar
van 24 om 00 UTC tot 24 om 06 UTC
Wind kt uit het noorden

TAF: HDAM 230500Z 2306/2406 08010KT 9999 FEW023 BECMG 2312/2315 VRB03KT CAVOK BECMG 2400/2406 00000KT

Waarnemingen en weersverwachtingen van meer dan 4000 vliegvelden (METAR en TAF).

De beschikbare stations zijn de gele en rode punten op de kaart.

Ga met uw muis naar het station om de naam te zien.

Klik dan om waarnemingen en weersverwachtingen te zien.

kaart wijzigen: klik op de groene knoppen met een zwart kruis om in te zoomen, op de groene knop met een streepje om uit te zoomen of op de groene pijlen voor aangrenzende kaarten.


METAR-TAF: